createdAt,value
2017-11-20T00:00:22.404Z,0
2017-11-20T00:01:22.349Z,0
2017-11-20T00:02:22.350Z,0
2017-11-20T00:03:22.345Z,0
2017-11-20T00:04:22.331Z,0
2017-11-20T00:05:22.295Z,0
2017-11-20T00:06:22.291Z,0
2017-11-20T00:07:22.278Z,0
2017-11-20T00:08:22.242Z,0
2017-11-20T00:09:22.237Z,0
2017-11-20T00:10:21.971Z,0
2017-11-20T00:11:22.208Z,0
2017-11-20T00:12:21.936Z,0
2017-11-20T00:13:22.183Z,0
2017-11-20T00:14:22.174Z,0
2017-11-20T00:15:22.152Z,0
2017-11-20T00:16:22.149Z,0
2017-11-20T00:17:22.124Z,0
2017-11-20T00:18:22.112Z,0
2017-11-20T00:19:22.090Z,0
2017-11-20T00:20:21.810Z,0
2017-11-20T00:21:22.062Z,0
2017-11-20T00:22:22.046Z,0
2017-11-20T00:23:22.043Z,0
2017-11-20T00:24:22.013Z,0
2017-11-20T00:25:22.015Z,0
2017-11-20T00:26:22.026Z,0
2017-11-20T00:27:21.710Z,0
2017-11-20T00:28:21.982Z,0
2017-11-20T00:29:21.940Z,0
2017-11-20T00:30:21.922Z,0
2017-11-20T00:31:21.650Z,0
2017-11-20T00:32:21.941Z,0
2017-11-20T00:33:21.893Z,0
2017-11-20T00:34:21.611Z,0
2017-11-20T00:35:21.866Z,0
2017-11-20T00:36:21.831Z,0
2017-11-20T00:37:21.814Z,0
2017-11-20T00:38:21.800Z,0
2017-11-20T00:39:21.549Z,0
2017-11-20T00:40:21.522Z,0
2017-11-20T00:41:21.766Z,0
2017-11-20T00:42:21.748Z,0
2017-11-20T00:43:21.731Z,0
2017-11-20T00:44:21.758Z,0
2017-11-20T00:45:21.705Z,0
2017-11-20T00:46:21.686Z,0
2017-11-20T00:47:21.682Z,0
2017-11-20T00:48:21.656Z,0
2017-11-20T00:49:21.390Z,0
2017-11-20T00:50:21.628Z,0
2017-11-20T00:51:21.608Z,0
2017-11-20T00:52:21.600Z,0
2017-11-20T00:53:21.584Z,0
2017-11-20T00:54:21.566Z,0
2017-11-20T00:55:21.290Z,0
2017-11-20T00:56:21.564Z,0
2017-11-20T00:57:21.554Z,0
2017-11-20T00:58:21.511Z,0
2017-11-20T00:59:21.491Z,0
2017-11-20T01:00:21.484Z,0
2017-11-20T01:01:21.477Z,0
2017-11-20T01:02:21.453Z,0
2017-11-20T01:03:21.427Z,0
2017-11-20T01:04:21.418Z,0
2017-11-20T01:05:21.406Z,0
2017-11-20T01:06:21.381Z,0
2017-11-20T01:07:21.362Z,0
2017-11-20T01:08:21.357Z,0
2017-11-20T01:09:21.339Z,0
2017-11-20T01:10:21.323Z,0
2017-11-20T01:11:21.317Z,0
2017-11-20T01:12:21.296Z,0
2017-11-20T01:13:21.291Z,0
2017-11-20T01:14:21.278Z,0
2017-11-20T01:15:21.282Z,0
2017-11-20T01:16:21.239Z,0
2017-11-20T01:17:21.227Z,0
2017-11-20T01:18:20.700Z,0
2017-11-20T01:19:21.199Z,0
2017-11-20T01:20:21.186Z,0
2017-11-20T01:21:21.178Z,0
2017-11-20T01:22:21.147Z,0
2017-11-20T01:23:20.600Z,0
2017-11-20T01:24:21.116Z,0
2017-11-20T01:25:20.834Z,0
2017-11-20T01:26:21.080Z,0
2017-11-20T01:27:20.806Z,0
2017-11-20T01:28:21.051Z,0
2017-11-20T01:29:21.034Z,0
2017-11-20T01:30:21.043Z,0
2017-11-20T01:31:21.013Z,0
2017-11-20T01:32:20.991Z,0
2017-11-20T01:33:20.980Z,0
2017-11-20T01:34:20.962Z,0
2017-11-20T01:35:20.692Z,0
2017-11-20T01:36:20.944Z,0
2017-11-20T01:37:20.965Z,0
2017-11-20T01:38:20.896Z,0
2017-11-20T01:39:20.891Z,0
2017-11-20T01:40:20.878Z,0
2017-11-20T01:41:20.862Z,0
2017-11-20T01:42:20.841Z,0
2017-11-20T01:43:20.829Z,0
2017-11-20T01:44:20.561Z,0
2017-11-20T01:45:20.818Z,0
2017-11-20T01:46:20.782Z,0
2017-11-20T01:47:20.764Z,0
2017-11-20T01:48:20.754Z,0
2017-11-20T01:49:20.739Z,0
2017-11-20T01:50:20.472Z,0
2017-11-20T01:51:20.695Z,0
2017-11-20T01:52:20.680Z,0
2017-11-20T01:53:20.675Z,0
2017-11-20T01:54:20.651Z,0
2017-11-20T01:55:20.642Z,0
2017-11-20T01:56:20.622Z,0
2017-11-20T01:57:20.628Z,0
2017-11-20T01:58:20.349Z,0
2017-11-20T01:59:20.583Z,0
2017-11-20T02:00:20.561Z,0
2017-11-20T02:01:20.565Z,0
2017-11-20T02:02:20.555Z,0
2017-11-20T02:03:20.546Z,0
2017-11-20T02:04:20.517Z,0
2017-11-20T02:05:20.491Z,0
2017-11-20T02:06:20.479Z,0
2017-11-20T02:07:20.213Z,0
2017-11-20T02:08:20.438Z,0
2017-11-20T02:09:20.167Z,0
2017-11-20T02:10:20.410Z,0
2017-11-20T02:11:20.407Z,0
2017-11-20T02:12:20.118Z,0
2017-11-20T02:13:20.364Z,0
2017-11-20T02:14:20.104Z,0
2017-11-20T02:15:20.338Z,0
2017-11-20T02:16:20.622Z,0
2017-11-20T02:17:20.307Z,0
2017-11-20T02:18:20.286Z,0
2017-11-20T02:19:20.285Z,0
2017-11-20T02:20:20.259Z,0
2017-11-20T02:21:20.246Z,0
2017-11-20T02:22:20.239Z,0
2017-11-20T02:23:20.223Z,0
2017-11-20T02:24:20.207Z,0
2017-11-20T02:25:20.187Z,0
2017-11-20T02:26:20.177Z,0
2017-11-20T02:27:20.150Z,0
2017-11-20T02:28:20.136Z,0
2017-11-20T02:29:20.138Z,0
2017-11-20T02:30:20.128Z,0
2017-11-20T02:31:20.098Z,0
2017-11-20T02:32:20.093Z,0
2017-11-20T02:33:20.068Z,0
2017-11-20T02:34:19.788Z,0
2017-11-20T02:35:19.780Z,0
2017-11-20T02:36:20.026Z,0
2017-11-20T02:37:20.016Z,0
2017-11-20T02:38:19.729Z,0
2017-11-20T02:39:19.987Z,0
2017-11-20T02:40:19.714Z,0
2017-11-20T02:41:19.942Z,0
2017-11-20T02:42:19.925Z,0
2017-11-20T02:43:19.916Z,0
2017-11-20T02:44:19.900Z,0
2017-11-20T02:45:19.877Z,0
2017-11-20T02:46:19.875Z,0
2017-11-20T02:47:19.841Z,0
2017-11-20T02:48:19.317Z,0
2017-11-20T02:49:19.807Z,0
2017-11-20T02:50:19.823Z,0
2017-11-20T02:51:19.808Z,0
2017-11-20T02:52:19.790Z,0
2017-11-20T02:53:19.753Z,0
2017-11-20T02:54:19.486Z,0
2017-11-20T02:55:19.743Z,0
2017-11-20T02:56:19.703Z,0
2017-11-20T02:57:19.683Z,0
2017-11-20T02:58:19.673Z,0
2017-11-20T02:59:19.658Z,0
2017-11-20T03:00:19.649Z,0
2017-11-20T03:01:19.620Z,0
2017-11-20T03:02:19.608Z,0
2017-11-20T03:03:19.818Z,0
2017-11-20T03:04:19.590Z,0
2017-11-20T03:05:19.560Z,0
2017-11-20T03:06:19.557Z,0
2017-11-20T03:07:19.536Z,0
2017-11-20T03:08:19.512Z,0
2017-11-20T03:09:19.522Z,0
2017-11-20T03:10:19.221Z,0
2017-11-20T03:11:19.468Z,0
2017-11-20T03:12:19.187Z,0
2017-11-20T03:13:19.205Z,0
2017-11-20T03:14:19.161Z,0
2017-11-20T03:15:19.402Z,0
2017-11-20T03:16:19.401Z,0
2017-11-20T03:17:19.123Z,0
2017-11-20T03:18:19.365Z,0
2017-11-20T03:19:19.079Z,0
2017-11-20T03:20:19.075Z,0
2017-11-20T03:21:19.309Z,0
2017-11-20T03:22:19.294Z,0
2017-11-20T03:23:19.279Z,0
2017-11-20T03:24:19.011Z,0
2017-11-20T03:25:19.255Z,0
2017-11-20T03:26:18.970Z,0
2017-11-20T03:27:19.238Z,0
2017-11-20T03:28:19.195Z,0
2017-11-20T03:29:19.186Z,0
2017-11-20T03:30:19.193Z,0
2017-11-20T03:31:19.172Z,0
2017-11-20T03:32:19.140Z,0
2017-11-20T03:33:19.143Z,0
2017-11-20T03:34:19.116Z,0
2017-11-20T03:35:19.100Z,0
2017-11-20T03:36:19.094Z,0
2017-11-20T03:37:19.064Z,0
2017-11-20T03:38:19.055Z,0
2017-11-20T03:39:19.028Z,0
2017-11-20T03:40:19.024Z,0
2017-11-20T03:41:18.993Z,0
2017-11-20T03:42:18.982Z,0
2017-11-20T03:43:18.977Z,0
2017-11-20T03:44:18.967Z,0
2017-11-20T03:45:18.940Z,0
2017-11-20T03:46:18.925Z,0
2017-11-20T03:47:18.917Z,0
2017-11-20T03:48:18.883Z,0
2017-11-20T03:49:18.874Z,0
2017-11-20T03:50:18.601Z,0
2017-11-20T03:51:18.593Z,0
2017-11-20T03:52:18.831Z,0
2017-11-20T03:53:18.810Z,0
2017-11-20T03:54:18.818Z,0
2017-11-20T03:55:18.790Z,0
2017-11-20T03:56:18.767Z,0
2017-11-20T03:57:18.757Z,0
2017-11-20T03:58:18.739Z,0
2017-11-20T03:59:18.733Z,0
2017-11-20T04:00:18.709Z,0
2017-11-20T04:01:18.686Z,0
2017-11-20T04:02:18.677Z,0
2017-11-20T04:03:18.692Z,0
2017-11-20T04:04:18.639Z,0
2017-11-20T04:05:18.620Z,0
2017-11-20T04:06:18.651Z,0
2017-11-20T04:07:18.602Z,0
2017-11-20T04:08:18.589Z,0
2017-11-20T04:09:18.575Z,0
2017-11-20T04:10:18.580Z,0
2017-11-20T04:11:18.538Z,0
2017-11-20T04:12:18.524Z,0
2017-11-20T04:13:18.507Z,0
2017-11-20T04:14:18.498Z,0
2017-11-20T04:15:18.215Z,0
2017-11-20T04:16:18.463Z,0
2017-11-20T04:17:18.462Z,0
2017-11-20T04:18:18.447Z,0
2017-11-20T04:19:18.420Z,0
2017-11-20T04:20:18.419Z,0
2017-11-20T04:21:17.884Z,0
2017-11-20T04:22:18.382Z,0
2017-11-20T04:23:17.858Z,0
2017-11-20T04:24:18.358Z,0
2017-11-20T04:25:18.079Z,0
2017-11-20T04:26:18.073Z,0
2017-11-20T04:27:18.307Z,0
2017-11-20T04:28:18.299Z,0
2017-11-20T04:29:18.025Z,0
2017-11-20T04:30:18.010Z,0
2017-11-20T04:31:17.748Z,0
2017-11-20T04:32:17.983Z,0
2017-11-20T04:33:18.249Z,0
2017-11-20T04:34:18.214Z,0
2017-11-20T04:35:17.958Z,0
2017-11-20T04:36:18.184Z,0
2017-11-20T04:37:18.179Z,0
2017-11-20T04:38:18.153Z,0
2017-11-20T04:39:17.874Z,0
2017-11-20T04:40:18.168Z,0
2017-11-20T04:41:18.121Z,0
2017-11-20T04:42:18.103Z,0
2017-11-20T04:43:18.094Z,0
2017-11-20T04:44:17.810Z,0
2017-11-20T04:45:18.075Z,0
2017-11-20T04:46:18.069Z,0
2017-11-20T04:47:17.770Z,0
2017-11-20T04:48:17.788Z,0
2017-11-20T04:49:17.742Z,0
2017-11-20T04:50:17.733Z,0
2017-11-20T04:51:17.984Z,0
2017-11-20T04:52:17.960Z,0
2017-11-20T04:53:17.979Z,0
2017-11-20T04:54:17.983Z,0
2017-11-20T04:55:17.921Z,0
2017-11-20T04:56:17.920Z,0
2017-11-20T04:57:18.148Z,0
2017-11-20T04:58:17.895Z,0
2017-11-20T04:59:17.871Z,0
2017-11-20T05:00:17.866Z,0
2017-11-20T05:01:17.587Z,0
2017-11-20T05:02:17.837Z,0
2017-11-20T05:03:17.833Z,0
2017-11-20T05:04:17.802Z,0
2017-11-20T05:05:17.793Z,0
2017-11-20T05:06:17.519Z,0
2017-11-20T05:07:17.773Z,0
2017-11-20T05:08:17.497Z,0
2017-11-20T05:09:17.740Z,0
2017-11-20T05:10:17.731Z,0
2017-11-20T05:11:17.716Z,0
2017-11-20T05:12:17.695Z,0
2017-11-20T05:13:17.705Z,0
2017-11-20T05:14:17.687Z,0
2017-11-20T05:15:17.654Z,0
2017-11-20T05:16:17.647Z,0
2017-11-20T05:17:17.633Z,0
2017-11-20T05:18:17.628Z,0
2017-11-20T05:19:17.626Z,0
2017-11-20T05:20:17.341Z,0
2017-11-20T05:21:17.330Z,0
2017-11-20T05:22:17.053Z,0
2017-11-20T05:23:17.298Z,0
2017-11-20T05:24:17.294Z,0
2017-11-20T05:25:17.533Z,0
2017-11-20T05:26:17.519Z,0
2017-11-20T05:27:17.265Z,0
2017-11-20T05:28:17.498Z,0
2017-11-20T05:29:17.483Z,0
2017-11-20T05:30:17.220Z,0
2017-11-20T05:31:17.466Z,0
2017-11-20T05:32:17.185Z,0
2017-11-20T05:33:17.430Z,0
2017-11-20T05:34:17.419Z,0
2017-11-20T05:35:17.413Z,0
2017-11-20T05:36:17.393Z,0
2017-11-20T05:37:17.382Z,0
2017-11-20T05:38:17.371Z,0
2017-11-20T05:39:17.094Z,0
2017-11-20T05:40:17.341Z,0
2017-11-20T05:41:17.328Z,0
2017-11-20T05:42:17.311Z,0
2017-11-20T05:43:17.296Z,0
2017-11-20T05:44:17.299Z,0
2017-11-20T05:45:17.273Z,0
2017-11-20T05:46:17.283Z,0
2017-11-20T05:47:17.250Z,0
2017-11-20T05:48:17.239Z,0
2017-11-20T05:49:17.220Z,0
2017-11-20T05:50:17.221Z,0
2017-11-20T05:51:17.213Z,0
2017-11-20T05:52:17.180Z,0
2017-11-20T05:53:17.178Z,0
2017-11-20T05:54:17.153Z,0
2017-11-20T05:55:17.155Z,0
2017-11-20T05:56:17.161Z,0
2017-11-20T05:57:17.124Z,0
2017-11-20T05:58:17.111Z,0
2017-11-20T05:59:16.837Z,0
2017-11-20T06:00:16.824Z,0
2017-11-20T06:01:17.079Z,0
2017-11-20T06:02:17.057Z,0
2017-11-20T06:03:17.057Z,0
2017-11-20T06:04:17.046Z,0
2017-11-20T06:05:16.785Z,0
2017-11-20T06:06:17.024Z,0
2017-11-20T06:07:17.000Z,0
2017-11-20T06:08:16.718Z,0
2017-11-20T06:09:16.972Z,0
2017-11-20T06:10:16.962Z,0
2017-11-20T06:11:16.943Z,0
2017-11-20T06:12:16.413Z,0
2017-11-20T06:13:16.927Z,0
2017-11-20T06:14:16.655Z,0
2017-11-20T06:15:16.888Z,0
2017-11-20T06:16:16.623Z,0
2017-11-20T06:17:16.872Z,0
2017-11-20T06:18:16.869Z,0
2017-11-20T06:19:16.579Z,0
2017-11-20T06:20:16.570Z,0
2017-11-20T06:21:16.562Z,0
2017-11-20T06:22:16.803Z,0
2017-11-20T06:23:16.782Z,0
2017-11-20T06:24:16.796Z,0
2017-11-20T06:25:16.513Z,0
2017-11-20T06:26:16.510Z,0
2017-11-20T06:27:16.736Z,0
2017-11-20T06:28:16.229Z,5
2017-11-20T06:29:16.727Z,5
2017-11-20T06:30:16.702Z,5
2017-11-20T06:31:16.686Z,5
2017-11-20T06:32:16.679Z,5
2017-11-20T06:33:16.671Z,5
2017-11-20T06:34:16.657Z,5
2017-11-20T06:35:16.652Z,10
2017-11-20T06:36:16.634Z,10
2017-11-20T06:37:16.628Z,10
2017-11-20T06:38:16.606Z,10
2017-11-20T06:39:16.334Z,10
2017-11-20T06:40:16.640Z,10
2017-11-20T06:41:16.555Z,15
2017-11-20T06:42:16.285Z,15
2017-11-20T06:43:16.272Z,20
2017-11-20T06:44:16.538Z,20
2017-11-20T06:45:16.509Z,20
2017-11-20T06:46:16.499Z,20
2017-11-20T06:47:16.487Z,20
2017-11-20T06:48:16.488Z,20
2017-11-20T06:49:16.221Z,20
2017-11-20T06:50:16.469Z,25
2017-11-20T06:51:15.934Z,30
2017-11-20T06:52:16.427Z,30
2017-11-20T06:53:16.405Z,35
2017-11-20T06:54:16.401Z,35
2017-11-20T06:55:16.388Z,40
2017-11-20T06:56:15.859Z,40
2017-11-20T06:57:16.365Z,40
2017-11-20T06:58:16.782Z,40
2017-11-20T06:59:16.337Z,35
2017-11-20T07:00:16.330Z,40
2017-11-20T07:01:16.064Z,50
2017-11-20T07:02:16.038Z,50
2017-11-20T07:03:16.305Z,50
2017-11-20T07:04:16.282Z,50
2017-11-20T07:05:16.264Z,45
2017-11-20T07:06:16.011Z,40
2017-11-20T07:07:16.266Z,35
2017-11-20T07:08:16.957Z,40
2017-11-20T07:09:16.253Z,45
2017-11-20T07:10:16.472Z,45
2017-11-20T07:11:16.199Z,55
2017-11-20T07:12:16.203Z,45
2017-11-20T07:13:16.165Z,40
2017-11-20T07:14:16.224Z,50
2017-11-20T07:15:16.171Z,55
2017-11-20T07:16:16.185Z,60
2017-11-20T07:17:15.856Z,55
2017-11-20T07:18:15.859Z,65
2017-11-20T07:19:16.157Z,65
2017-11-20T07:20:16.206Z,60
2017-11-20T07:21:16.196Z,70
2017-11-20T07:22:16.133Z,75
2017-11-20T07:23:16.092Z,80
2017-11-20T07:24:15.880Z,75
2017-11-20T07:25:16.081Z,75
2017-11-20T07:26:15.585Z,80
2017-11-20T07:27:15.753Z,85
2017-11-20T07:28:15.756Z,90
2017-11-20T07:29:16.006Z,100
2017-11-20T07:30:15.743Z,105
2017-11-20T07:31:15.983Z,110
2017-11-20T07:32:15.713Z,110
2017-11-20T07:33:15.955Z,110
2017-11-20T07:34:15.662Z,115
2017-11-20T07:35:16.005Z,115
2017-11-20T07:36:15.696Z,120
2017-11-20T07:37:15.973Z,125
2017-11-20T07:38:15.908Z,130
2017-11-20T07:39:16.417Z,140
2017-11-20T07:40:15.864Z,115
2017-11-20T07:41:15.849Z,125
2017-11-20T07:42:15.562Z,130
2017-11-20T07:43:15.808Z,140
2017-11-20T07:44:15.800Z,140
2017-11-20T07:45:15.797Z,120
2017-11-20T07:46:15.275Z,125
2017-11-20T07:47:15.789Z,130
2017-11-20T07:48:15.807Z,125
2017-11-20T07:49:15.747Z,125
2017-11-20T07:50:15.801Z,125
2017-11-20T07:51:15.743Z,120
2017-11-20T07:52:16.248Z,120
2017-11-20T07:53:15.712Z,120
2017-11-20T07:54:15.430Z,120
2017-11-20T07:55:15.731Z,125
2017-11-20T07:56:15.416Z,135
2017-11-20T07:57:15.402Z,120
2017-11-20T07:58:15.721Z,115
2017-11-20T07:59:15.685Z,115
2017-11-20T08:00:15.691Z,120
2017-11-20T08:01:15.835Z,120
2017-11-20T08:02:15.337Z,120
2017-11-20T08:03:15.581Z,125
2017-11-20T08:04:15.308Z,135
2017-11-20T08:05:15.300Z,135
2017-11-20T08:06:15.564Z,140
2017-11-20T08:07:15.545Z,140
2017-11-20T08:08:15.529Z,140
2017-11-20T08:09:15.528Z,140
2017-11-20T08:10:15.494Z,160
2017-11-20T08:11:15.482Z,165
2017-11-20T08:12:15.476Z,175
2017-11-20T08:13:15.475Z,165
2017-11-20T08:14:15.448Z,175
2017-11-20T08:15:15.180Z,170
2017-11-20T08:16:15.450Z,150
2017-11-20T08:17:15.241Z,145
2017-11-20T08:18:15.455Z,150
2017-11-20T08:19:15.390Z,145
2017-11-20T08:20:15.390Z,145
2017-11-20T08:21:15.376Z,150
2017-11-20T08:22:14.849Z,190
2017-11-20T08:23:15.089Z,180
2017-11-20T08:24:15.395Z,155
2017-11-20T08:25:15.335Z,160
2017-11-20T08:26:15.313Z,160
2017-11-20T08:27:15.314Z,160
2017-11-20T08:28:15.296Z,155
2017-11-20T08:29:15.018Z,150
2017-11-20T08:30:14.751Z,145
2017-11-20T08:31:15.270Z,145
2017-11-20T08:32:14.761Z,145
2017-11-20T08:33:14.964Z,145
2017-11-20T08:34:15.246Z,145
2017-11-20T08:35:15.207Z,145
2017-11-20T08:36:14.930Z,150
2017-11-20T08:37:15.197Z,145
2017-11-20T08:38:14.904Z,150
2017-11-20T08:39:15.151Z,160
2017-11-20T08:40:15.162Z,160
2017-11-20T08:41:15.189Z,170
2017-11-20T08:42:15.456Z,160
2017-11-20T08:43:15.177Z,155
2017-11-20T08:44:15.129Z,160
2017-11-20T08:45:15.198Z,160
2017-11-20T08:46:14.928Z,170
2017-11-20T08:47:15.125Z,165
2017-11-20T08:48:15.186Z,165
2017-11-20T08:49:14.906Z,170
2017-11-20T08:50:15.117Z,170
2017-11-20T08:51:15.157Z,175
2017-11-20T08:52:15.031Z,175
2017-11-20T08:53:15.311Z,180
2017-11-20T08:54:15.008Z,180
2017-11-20T08:55:15.053Z,180
2017-11-20T08:56:14.711Z,185
2017-11-20T08:57:14.693Z,185
2017-11-20T08:58:14.957Z,190
2017-11-20T08:59:14.964Z,195
2017-11-20T09:00:14.724Z,205
2017-11-20T09:01:15.008Z,200
2017-11-20T09:02:14.902Z,185
2017-11-20T09:03:14.878Z,185
2017-11-20T09:04:14.883Z,190
2017-11-20T09:05:14.633Z,185
2017-11-20T09:06:14.611Z,180
2017-11-20T09:07:14.832Z,180
2017-11-20T09:08:14.865Z,175
2017-11-20T09:09:14.886Z,170
2017-11-20T09:10:14.816Z,175
2017-11-20T09:11:14.927Z,210
2017-11-20T09:12:14.770Z,250
2017-11-20T09:13:14.774Z,250
2017-11-20T09:14:14.753Z,220
2017-11-20T09:15:14.806Z,200
2017-11-20T09:16:14.511Z,200
2017-11-20T09:17:14.785Z,205
2017-11-20T09:18:14.466Z,225
2017-11-20T09:19:14.695Z,190
2017-11-20T09:20:14.174Z,185
2017-11-20T09:21:14.687Z,190
2017-11-20T09:22:14.442Z,185
2017-11-20T09:23:14.693Z,175
2017-11-20T09:24:14.407Z,175
2017-11-20T09:25:14.645Z,175
2017-11-20T09:26:14.384Z,180
2017-11-20T09:27:14.641Z,190
2017-11-20T09:28:14.099Z,200
2017-11-20T09:29:14.594Z,190
2017-11-20T09:30:14.581Z,180
2017-11-20T09:31:14.608Z,185
2017-11-20T09:32:14.300Z,195
2017-11-20T09:33:14.579Z,205
2017-11-20T09:34:14.304Z,200
2017-11-20T09:35:14.562Z,210
2017-11-20T09:36:14.541Z,220
2017-11-20T09:37:14.510Z,195
2017-11-20T09:38:14.501Z,185
2017-11-20T09:39:14.481Z,185
2017-11-20T09:40:14.272Z,180
2017-11-20T09:41:14.200Z,185
2017-11-20T09:42:14.712Z,175
2017-11-20T09:43:14.426Z,230
2017-11-20T09:44:14.193Z,220
2017-11-20T09:45:13.900Z,195
2017-11-20T09:46:14.193Z,225
2017-11-20T09:47:14.421Z,200
2017-11-20T09:48:14.124Z,220
2017-11-20T09:49:14.408Z,210
2017-11-20T09:50:14.422Z,200
2017-11-20T09:51:14.489Z,215
2017-11-20T09:52:14.128Z,200
2017-11-20T09:53:15.188Z,205
2017-11-20T09:54:14.115Z,245
2017-11-20T09:55:14.354Z,230
2017-11-20T09:56:14.320Z,190
2017-11-20T09:57:14.314Z,180
2017-11-20T09:58:14.328Z,195
2017-11-20T09:59:13.854Z,190
2017-11-20T10:00:14.308Z,180
2017-11-20T10:01:14.294Z,175
2017-11-20T10:02:13.740Z,175
2017-11-20T10:03:14.250Z,220
2017-11-20T10:04:14.232Z,200
2017-11-20T10:05:13.963Z,180
2017-11-20T10:06:14.239Z,180
2017-11-20T10:07:14.189Z,185
2017-11-20T10:08:14.194Z,245
2017-11-20T10:09:14.216Z,215
2017-11-20T10:10:14.195Z,180
2017-11-20T10:11:13.913Z,185
2017-11-20T10:12:13.622Z,180
2017-11-20T10:13:14.161Z,180
2017-11-20T10:14:14.370Z,180
2017-11-20T10:15:14.111Z,185
2017-11-20T10:16:14.105Z,175
2017-11-20T10:17:14.094Z,170
2017-11-20T10:18:13.860Z,165
2017-11-20T10:19:13.816Z,160
2017-11-20T10:20:14.073Z,160
2017-11-20T10:21:14.040Z,160
2017-11-20T10:22:14.024Z,165
2017-11-20T10:23:14.050Z,165
2017-11-20T10:24:14.046Z,170
2017-11-20T10:25:14.000Z,175
2017-11-20T10:26:14.003Z,175
2017-11-20T10:27:13.716Z,185
2017-11-20T10:28:13.970Z,190
2017-11-20T10:29:14.232Z,175
2017-11-20T10:30:13.970Z,175
2017-11-20T10:31:13.692Z,175
2017-11-20T10:32:13.421Z,195
2017-11-20T10:33:13.697Z,205
2017-11-20T10:34:13.994Z,175
2017-11-20T10:35:13.976Z,165
2017-11-20T10:36:14.079Z,165
2017-11-20T10:37:13.979Z,170
2017-11-20T10:38:13.632Z,165
2017-11-20T10:39:13.968Z,160
2017-11-20T10:40:14.370Z,160
2017-11-20T10:41:13.868Z,160
2017-11-20T10:42:13.847Z,160
2017-11-20T10:43:13.564Z,165
2017-11-20T10:44:13.821Z,170
2017-11-20T10:45:13.850Z,175
2017-11-20T10:46:13.775Z,180
2017-11-20T10:47:13.811Z,180
2017-11-20T10:48:13.513Z,175
2017-11-20T10:49:13.763Z,170
2017-11-20T10:50:13.788Z,190
2017-11-20T10:51:13.494Z,215
2017-11-20T10:52:13.484Z,245
2017-11-20T10:53:13.740Z,245
2017-11-20T10:54:13.803Z,265
2017-11-20T10:55:14.015Z,285
2017-11-20T10:56:13.726Z,270
2017-11-20T10:57:14.063Z,280
2017-11-20T10:58:13.481Z,285
2017-11-20T10:59:13.953Z,275
2017-11-20T11:00:13.293Z,305
2017-11-20T11:01:13.704Z,255
2017-11-20T11:02:13.650Z,235
2017-11-20T11:03:13.699Z,245
2017-11-20T11:04:13.761Z,265
2017-11-20T11:05:13.607Z,320
2017-11-20T11:06:13.207Z,335
2017-11-20T11:07:13.321Z,285
2017-11-20T11:08:13.429Z,250
2017-11-20T11:09:13.372Z,285
2017-11-20T11:10:13.291Z,305
2017-11-20T11:11:13.278Z,300
2017-11-20T11:12:13.567Z,290
2017-11-20T11:13:13.786Z,250
2017-11-20T11:14:13.514Z,225
2017-11-20T11:15:13.556Z,240
2017-11-20T11:16:13.284Z,235
2017-11-20T11:17:13.228Z,270
2017-11-20T11:18:13.493Z,280
2017-11-20T11:19:12.988Z,245
2017-11-20T11:20:13.512Z,230
2017-11-20T11:21:13.204Z,245
2017-11-20T11:22:13.475Z,245
2017-11-20T11:23:13.175Z,260
2017-11-20T11:24:13.423Z,255
2017-11-20T11:25:13.452Z,250
2017-11-20T11:26:13.381Z,255
2017-11-20T11:27:12.860Z,280
2017-11-20T11:28:13.429Z,290
2017-11-20T11:29:13.195Z,305
2017-11-20T11:30:13.366Z,275
2017-11-20T11:31:12.857Z,260
2017-11-20T11:32:13.110Z,245
2017-11-20T11:33:13.356Z,225
2017-11-20T11:34:13.342Z,215
2017-11-20T11:35:13.396Z,195
2017-11-20T11:36:16.470Z,185
2017-11-20T11:37:13.087Z,190
2017-11-20T11:38:13.294Z,180
2017-11-20T11:39:13.272Z,175
2017-11-20T11:40:13.278Z,170
2017-11-20T11:41:13.708Z,180
2017-11-20T11:42:13.360Z,195
2017-11-20T11:43:14.065Z,180
2017-11-20T11:44:13.261Z,190
2017-11-20T11:45:13.233Z,190
2017-11-20T11:46:13.226Z,190
2017-11-20T11:47:13.233Z,170
2017-11-20T11:48:13.228Z,180
2017-11-20T11:49:13.231Z,195
2017-11-20T11:50:13.466Z,185
2017-11-20T11:51:13.383Z,170
2017-11-20T11:52:13.192Z,165
2017-11-20T11:53:13.184Z,155
2017-11-20T11:54:13.164Z,160
2017-11-20T11:55:13.167Z,160
2017-11-20T11:56:12.644Z,155
2017-11-20T11:57:13.130Z,160
2017-11-20T11:58:13.113Z,160
2017-11-20T11:59:13.097Z,150
2017-11-20T12:00:12.887Z,130
2017-11-20T12:01:12.926Z,125
2017-11-20T12:02:12.823Z,110
2017-11-20T12:03:13.103Z,95
2017-11-20T12:04:13.132Z,85
2017-11-20T12:05:12.784Z,100
2017-11-20T12:06:12.592Z,110
2017-11-20T12:07:13.048Z,115
2017-11-20T12:08:12.763Z,135
2017-11-20T12:09:13.077Z,170
2017-11-20T12:10:12.485Z,215
2017-11-20T12:11:12.755Z,265
2017-11-20T12:12:12.490Z,265
2017-11-20T12:13:12.962Z,215
2017-11-20T12:14:12.982Z,170
2017-11-20T12:15:13.085Z,150
2017-11-20T12:16:13.023Z,145
2017-11-20T12:17:13.327Z,140
2017-11-20T12:18:13.010Z,130
2017-11-20T12:19:13.099Z,120
2017-11-20T12:20:12.806Z,115
2017-11-20T12:21:12.971Z,110
2017-11-20T12:22:12.675Z,110
2017-11-20T12:23:13.015Z,110
2017-11-20T12:24:12.745Z,95
2017-11-20T12:25:12.924Z,95
2017-11-20T12:26:12.867Z,100
2017-11-20T12:27:12.605Z,95
2017-11-20T12:28:12.631Z,95
2017-11-20T12:29:12.565Z,80
2017-11-20T12:30:13.186Z,80
2017-11-20T12:31:12.285Z,75
2017-11-20T12:32:12.936Z,75
2017-11-20T12:33:12.828Z,90
2017-11-20T12:34:12.561Z,100
2017-11-20T12:35:12.311Z,95
2017-11-20T12:36:12.754Z,80
2017-11-20T12:37:12.754Z,80
2017-11-20T12:38:13.286Z,110
2017-11-20T12:39:12.987Z,120
2017-11-20T12:40:12.219Z,135
2017-11-20T12:41:12.707Z,130
2017-11-20T12:42:12.448Z,90
2017-11-20T12:43:12.729Z,65
2017-11-20T12:44:12.423Z,65
2017-11-20T12:45:12.656Z,80
2017-11-20T12:46:12.483Z,100
2017-11-20T12:47:12.475Z,110
2017-11-20T12:48:12.584Z,110
2017-11-20T12:49:12.646Z,95
2017-11-20T12:50:12.630Z,75
2017-11-20T12:51:12.615Z,55
2017-11-20T12:52:12.099Z,55
2017-11-20T12:53:12.316Z,60
2017-11-20T12:54:12.558Z,65
2017-11-20T12:55:12.325Z,75
2017-11-20T12:56:12.312Z,70
2017-11-20T12:57:12.307Z,60
2017-11-20T12:58:12.295Z,65
2017-11-20T12:59:12.556Z,60
2017-11-20T13:00:12.096Z,50
2017-11-20T13:01:12.815Z,40
2017-11-20T13:02:12.232Z,40
2017-11-20T13:03:12.527Z,35
2017-11-20T13:04:12.231Z,30
2017-11-20T13:05:12.450Z,25
2017-11-20T13:06:12.470Z,25
2017-11-20T13:07:12.196Z,45
2017-11-20T13:08:12.450Z,70
2017-11-20T13:09:12.156Z,80
2017-11-20T13:10:12.162Z,90
2017-11-20T13:11:12.165Z,95
2017-11-20T13:12:12.398Z,85
2017-11-20T13:13:12.401Z,80
2017-11-20T13:14:12.142Z,90
2017-11-20T13:15:12.704Z,105
2017-11-20T13:16:12.110Z,105
2017-11-20T13:17:12.349Z,95
2017-11-20T13:18:11.551Z,85
2017-11-20T13:19:12.338Z,90
2017-11-20T13:20:12.318Z,105
2017-11-20T13:21:12.078Z,115
2017-11-20T13:22:12.296Z,120
2017-11-20T13:23:12.039Z,125
2017-11-20T13:24:12.018Z,135
2017-11-20T13:25:11.748Z,135
2017-11-20T13:26:11.497Z,140
2017-11-20T13:27:11.980Z,135
2017-11-20T13:28:12.235Z,135
2017-11-20T13:29:12.278Z,130
2017-11-20T13:30:12.281Z,130
2017-11-20T13:31:12.686Z,130
2017-11-20T13:32:11.961Z,130
2017-11-20T13:33:12.235Z,130
2017-11-20T13:34:12.158Z,130
2017-11-20T13:35:11.904Z,135
2017-11-20T13:36:11.962Z,140
2017-11-20T13:37:11.915Z,130
2017-11-20T13:38:11.934Z,105
2017-11-20T13:39:11.894Z,100
2017-11-20T13:40:11.846Z,105
2017-11-20T13:41:12.155Z,110
2017-11-20T13:42:11.880Z,115
2017-11-20T13:43:12.117Z,125
2017-11-20T13:44:12.159Z,130
2017-11-20T13:45:11.622Z,125
2017-11-20T13:46:11.890Z,120
2017-11-20T13:47:12.163Z,120
2017-11-20T13:48:11.825Z,115
2017-11-20T13:49:12.070Z,110
2017-11-20T13:50:11.869Z,105
2017-11-20T13:51:12.035Z,105
2017-11-20T13:52:12.072Z,105
2017-11-20T13:53:11.761Z,105
2017-11-20T13:54:11.725Z,105
2017-11-20T13:55:11.699Z,100
2017-11-20T13:56:11.786Z,95
2017-11-20T13:57:11.713Z,95
2017-11-20T13:58:11.460Z,100
2017-11-20T13:59:12.015Z,95
2017-11-20T14:00:11.975Z,80
2017-11-20T14:01:11.927Z,70
2017-11-20T14:02:11.631Z,60
2017-11-20T14:03:11.672Z,55
2017-11-20T14:04:11.863Z,55
2017-11-20T14:05:11.927Z,55
2017-11-20T14:06:11.930Z,55
2017-11-20T14:07:11.707Z,50
2017-11-20T14:08:12.145Z,45
2017-11-20T14:09:11.923Z,40
2017-11-20T14:10:11.888Z,35
2017-11-20T14:11:11.617Z,30
2017-11-20T14:12:11.560Z,30
2017-11-20T14:13:11.513Z,30
2017-11-20T14:14:11.842Z,25
2017-11-20T14:15:11.647Z,30
2017-11-20T14:16:11.342Z,40
2017-11-20T14:17:11.843Z,45